sensor_id;sensor_type;location;lat;lon;timestamp;pressure;altitude;pressure_sealevel;temperature;humidity
9695;BME280;4690;52.422;13.486;2023-05-25T00:06:48;102029.25;;;12.38;69.93
9695;BME280;4690;52.422;13.486;2023-05-25T00:09:14;102033.50;;;12.33;70.02
9695;BME280;4690;52.422;13.486;2023-05-25T00:11:40;102033.91;;;12.30;70.31
9695;BME280;4690;52.422;13.486;2023-05-25T00:14:06;102022.47;;;12.27;70.14
9695;BME280;4690;52.422;13.486;2023-05-25T00:16:33;102024.38;;;12.26;70.37
9695;BME280;4690;52.422;13.486;2023-05-25T00:19:04;102020.34;;;12.22;70.54
9695;BME280;4690;52.422;13.486;2023-05-25T00:21:30;102025.59;;;12.17;70.67
9695;BME280;4690;52.422;13.486;2023-05-25T00:23:59;102027.06;;;12.13;70.76
9695;BME280;4690;52.422;13.486;2023-05-25T00:26:25;102027.28;;;12.11;70.98
9695;BME280;4690;52.422;13.486;2023-05-25T00:28:51;102021.13;;;12.09;70.96
9695;BME280;4690;52.422;13.486;2023-05-25T00:31:16;102021.53;;;12.06;71.19
9695;BME280;4690;52.422;13.486;2023-05-25T00:33:42;102028.28;;;12.04;71.21
9695;BME280;4690;52.422;13.486;2023-05-25T00:36:08;102030.41;;;12.02;71.42
9695;BME280;4690;52.422;13.486;2023-05-25T00:38:34;102026.16;;;11.99;71.36
9695;BME280;4690;52.422;13.486;2023-05-25T00:41:00;102033.78;;;11.97;71.42
9695;BME280;4690;52.422;13.486;2023-05-25T00:43:25;102030.38;;;11.95;71.50
9695;BME280;4690;52.422;13.486;2023-05-25T00:45:52;102029.72;;;11.93;71.28
9695;BME280;4690;52.422;13.486;2023-05-25T00:48:18;102029.28;;;11.89;71.58
9695;BME280;4690;52.422;13.486;2023-05-25T00:50:44;102017.88;;;11.86;71.76
9695;BME280;4690;52.422;13.486;2023-05-25T00:53:12;102030.75;;;11.85;71.82
9695;BME280;4690;52.422;13.486;2023-05-25T00:55:52;102025.63;;;11.82;71.93
9695;BME280;4690;52.422;13.486;2023-05-25T00:58:23;102025.41;;;11.77;72.09
9695;BME280;4690;52.422;13.486;2023-05-25T01:00:53;102024.75;;;11.75;72.08
9695;BME280;4690;52.422;13.486;2023-05-25T01:03:22;102026.44;;;11.76;72.15
9695;BME280;4690;52.422;13.486;2023-05-25T01:05:55;102027.69;;;11.74;72.35
9695;BME280;4690;52.422;13.486;2023-05-25T01:08:23;102032.75;;;11.70;72.25
9695;BME280;4690;52.422;13.486;2023-05-25T01:10:51;102020.69;;;11.64;72.36
9695;BME280;4690;52.422;13.486;2023-05-25T01:13:19;102018.34;;;11.61;72.31
9695;BME280;4690;52.422;13.486;2023-05-25T01:15:47;102023.63;;;11.63;72.28
9695;BME280;4690;52.422;13.486;2023-05-25T01:18:16;102014.31;;;11.57;72.75
9695;BME280;4690;52.422;13.486;2023-05-25T01:21:13;102018.72;;;11.52;72.62
9695;BME280;4690;52.422;13.486;2023-05-25T01:24:03;102023.75;;;11.48;72.99
9695;BME280;4690;52.422;13.486;2023-05-25T01:26:38;102024.38;;;11.43;73.03
9695;BME280;4690;52.422;13.486;2023-05-25T01:29:09;102024.97;;;11.39;73.02
9695;BME280;4690;52.422;13.486;2023-05-25T01:31:38;102022.81;;;11.34;73.46
9695;BME280;4690;52.422;13.486;2023-05-25T01:34:04;102027.00;;;11.30;73.61
9695;BME280;4690;52.422;13.486;2023-05-25T01:36:30;102024.66;;;11.27;73.62
9695;BME280;4690;52.422;13.486;2023-05-25T01:38:58;102027.34;;;11.20;73.84
9695;BME280;4690;52.422;13.486;2023-05-25T01:41:23;102021.41;;;11.17;74.11
9695;BME280;4690;52.422;13.486;2023-05-25T01:43:51;102035.34;;;11.15;73.94
9695;BME280;4690;52.422;13.486;2023-05-25T01:46:36;102028.50;;;11.05;74.77
9695;BME280;4690;52.422;13.486;2023-05-25T01:49:31;102032.28;;;11.04;74.37
9695;BME280;4690;52.422;13.486;2023-05-25T01:52:27;102025.31;;;11.01;75.06
9695;BME280;4690;52.422;13.486;2023-05-25T01:55:11;102029.31;;;10.98;75.24
9695;BME280;4690;52.422;13.486;2023-05-25T01:57:42;102025.50;;;10.99;75.00
9695;BME280;4690;52.422;13.486;2023-05-25T02:00:12;102031.56;;;10.95;75.16
9695;BME280;4690;52.422;13.486;2023-05-25T02:02:41;102032.03;;;10.98;75.14
9695;BME280;4690;52.422;13.486;2023-05-25T02:05:09;102024.84;;;10.97;75.17
9695;BME280;4690;52.422;13.486;2023-05-25T02:07:36;102023.56;;;10.93;75.14
9695;BME280;4690;52.422;13.486;2023-05-25T02:10:02;102022.50;;;10.94;75.57
9695;BME280;4690;52.422;13.486;2023-05-25T02:12:28;102025.69;;;10.98;75.41
9695;BME280;4690;52.422;13.486;2023-05-25T02:14:55;102022.31;;;10.96;75.07
9695;BME280;4690;52.422;13.486;2023-05-25T02:17:20;102013.25;;;10.95;75.19
9695;BME280;4690;52.422;13.486;2023-05-25T02:19:46;102022.63;;;10.86;75.49
9695;BME280;4690;52.422;13.486;2023-05-25T02:22:14;102025.78;;;10.83;75.60
9695;BME280;4690;52.422;13.486;2023-05-25T02:24:41;102024.28;;;10.81;75.41
9695;BME280;4690;52.422;13.486;2023-05-25T02:27:06;102013.69;;;10.77;75.67
9695;BME280;4690;52.422;13.486;2023-05-25T02:29:32;102021.09;;;10.77;75.56
9695;BME280;4690;52.422;13.486;2023-05-25T02:31:58;102029.31;;;10.77;76.01
9695;BME280;4690;52.422;13.486;2023-05-25T02:34:24;102034.34;;;10.73;76.50
9695;BME280;4690;52.422;13.486;2023-05-25T02:36:50;102029.31;;;10.77;76.67
9695;BME280;4690;52.422;13.486;2023-05-25T02:39:16;102019.84;;;10.80;76.43
9695;BME280;4690;52.422;13.486;2023-05-25T02:41:41;102030.81;;;10.80;75.92
9695;BME280;4690;52.422;13.486;2023-05-25T02:44:07;102028.91;;;10.80;76.10
9695;BME280;4690;52.422;13.486;2023-05-25T02:46:33;102025.59;;;10.85;76.24
9695;BME280;4690;52.422;13.486;2023-05-25T02:48:59;102020.94;;;10.85;76.09
9695;BME280;4690;52.422;13.486;2023-05-25T02:51:27;102021.78;;;10.86;76.01
9695;BME280;4690;52.422;13.486;2023-05-25T02:53:53;102023.28;;;10.88;75.42
9695;BME280;4690;52.422;13.486;2023-05-25T02:56:19;102030.47;;;10.89;75.35
9695;BME280;4690;52.422;13.486;2023-05-25T02:58:48;102028.78;;;10.88;75.36
9695;BME280;4690;52.422;13.486;2023-05-25T03:01:14;102030.47;;;10.89;75.83
9695;BME280;4690;52.422;13.486;2023-05-25T03:03:47;102033.59;;;10.86;75.62
9695;BME280;4690;52.422;13.486;2023-05-25T03:06:16;102027.09;;;10.87;75.59
9695;BME280;4690;52.422;13.486;2023-05-25T03:08:43;102029.34;;;10.84;75.43
9695;BME280;4690;52.422;13.486;2023-05-25T03:11:08;102032.09;;;10.84;75.54
9695;BME280;4690;52.422;13.486;2023-05-25T03:13:34;102030.41;;;10.83;75.47
9695;BME280;4690;52.422;13.486;2023-05-25T03:16:00;102037.13;;;10.80;75.49
9695;BME280;4690;52.422;13.486;2023-05-25T03:18:26;102047.94;;;10.82;76.03
9695;BME280;4690;52.422;13.486;2023-05-25T03:20:52;102035.25;;;10.81;75.84
9695;BME280;4690;52.422;13.486;2023-05-25T03:23:18;102039.69;;;10.82;75.75
9695;BME280;4690;52.422;13.486;2023-05-25T03:25:44;102034.22;;;10.82;75.63
9695;BME280;4690;52.422;13.486;2023-05-25T03:28:10;102031.06;;;10.85;75.74
9695;BME280;4690;52.422;13.486;2023-05-25T03:30:35;102042.03;;;10.85;75.98
9695;BME280;4690;52.422;13.486;2023-05-25T03:33:01;102046.28;;;10.87;75.98
9695;BME280;4690;52.422;13.486;2023-05-25T03:35:27;102035.94;;;10.89;75.81
9695;BME280;4690;52.422;13.486;2023-05-25T03:37:53;102035.78;;;10.91;75.82
9695;BME280;4690;52.422;13.486;2023-05-25T03:40:19;102039.16;;;10.93;75.87
9695;BME280;4690;52.422;13.486;2023-05-25T03:42:44;102038.56;;;10.97;75.71
9695;BME280;4690;52.422;13.486;2023-05-25T03:45:10;102047.00;;;10.96;76.04
9695;BME280;4690;52.422;13.486;2023-05-25T03:47:36;102044.44;;;10.94;75.97
9695;BME280;4690;52.422;13.486;2023-05-25T03:50:03;102047.00;;;10.96;75.94
9695;BME280;4690;52.422;13.486;2023-05-25T03:52:32;102050.38;;;10.98;75.87
9695;BME280;4690;52.422;13.486;2023-05-25T03:54:57;102047.44;;;10.99;76.27
9695;BME280;4690;52.422;13.486;2023-05-25T03:57:23;102049.78;;;11.03;76.32
9695;BME280;4690;52.422;13.486;2023-05-25T03:59:49;102054.03;;;11.05;76.42
9695;BME280;4690;52.422;13.486;2023-05-25T04:02:15;102056.38;;;11.08;76.66
9695;BME280;4690;52.422;13.486;2023-05-25T04:04:41;102051.16;;;11.13;76.48
9695;BME280;4690;52.422;13.486;2023-05-25T04:07:08;102051.59;;;11.17;76.45
9695;BME280;4690;52.422;13.486;2023-05-25T04:09:34;102046.38;;;11.22;76.77
9695;BME280;4690;52.422;13.486;2023-05-25T04:12:00;102049.16;;;11.29;76.76
9695;BME280;4690;52.422;13.486;2023-05-25T04:14:26;102061.22;;;11.34;76.65
9695;BME280;4690;52.422;13.486;2023-05-25T04:16:52;102045.84;;;11.40;77.01
9695;BME280;4690;52.422;13.486;2023-05-25T04:19:18;102061.72;;;11.44;76.80
9695;BME280;4690;52.422;13.486;2023-05-25T04:21:44;102065.56;;;11.50;77.00
9695;BME280;4690;52.422;13.486;2023-05-25T04:24:10;102067.31;;;11.58;76.94
9695;BME280;4690;52.422;13.486;2023-05-25T04:26:36;102071.34;;;11.62;76.91
9695;BME280;4690;52.422;13.486;2023-05-25T04:29:03;102063.56;;;11.65;77.29
9695;BME280;4690;52.422;13.486;2023-05-25T04:31:29;102070.38;;;11.76;77.18
9695;BME280;4690;52.422;13.486;2023-05-25T04:33:55;102067.47;;;11.84;77.40
9695;BME280;4690;52.422;13.486;2023-05-25T04:36:22;102083.22;;;11.97;77.64
9695;BME280;4690;52.422;13.486;2023-05-25T04:38:48;102066.16;;;12.08;77.73
9695;BME280;4690;52.422;13.486;2023-05-25T04:41:16;102083.56;;;12.22;nan
9695;BME280;4690;52.422;13.486;2023-05-25T04:43:42;102083.81;;;12.34;77.69
9695;BME280;4690;52.422;13.486;2023-05-25T04:46:11;102080.25;;;12.47;77.54
9695;BME280;4690;52.422;13.486;2023-05-25T04:48:39;102073.94;;;12.60;77.42
9695;BME280;4690;52.422;13.486;2023-05-25T04:51:05;102080.97;;;12.75;77.48
9695;BME280;4690;52.422;13.486;2023-05-25T04:53:32;102078.88;;;12.91;77.42
9695;BME280;4690;52.422;13.486;2023-05-25T04:55:59;102080.56;;;13.05;77.54
9695;BME280;4690;52.422;13.486;2023-05-25T04:58:25;102076.34;;;13.22;77.54
9695;BME280;4690;52.422;13.486;2023-05-25T05:00:54;102073.41;;;13.37;77.46
9695;BME280;4690;52.422;13.486;2023-05-25T05:03:20;102075.31;;;13.50;77.18
9695;BME280;4690;52.422;13.486;2023-05-25T05:05:46;102080.81;;;13.63;77.09
9695;BME280;4690;52.422;13.486;2023-05-25T05:08:12;102081.00;;;13.75;76.78
9695;BME280;4690;52.422;13.486;2023-05-25T05:10:38;102076.94;;;13.84;76.37
9695;BME280;4690;52.422;13.486;2023-05-25T05:13:04;102077.53;;;13.93;75.79
9695;BME280;4690;52.422;13.486;2023-05-25T05:15:29;102078.38;;;14.00;75.33
9695;BME280;4690;52.422;13.486;2023-05-25T05:17:55;102081.09;;;14.07;75.04
9695;BME280;4690;52.422;13.486;2023-05-25T05:20:21;102081.06;;;14.20;74.52
9695;BME280;4690;52.422;13.486;2023-05-25T05:22:47;102079.09;;;14.34;74.27
9695;BME280;4690;52.422;13.486;2023-05-25T05:25:13;102074.56;;;14.46;74.00
9695;BME280;4690;52.422;13.486;2023-05-25T05:27:39;102078.97;;;14.61;74.18
9695;BME280;4690;52.422;13.486;2023-05-25T05:30:07;102081.22;;;14.77;73.61
9695;BME280;4690;52.422;13.486;2023-05-25T05:32:33;102079.84;;;14.93;73.38
9695;BME280;4690;52.422;13.486;2023-05-25T05:34:59;102089.34;;;15.04;72.46
9695;BME280;4690;52.422;13.486;2023-05-25T05:37:25;102086.06;;;15.13;71.87
9695;BME280;4690;52.422;13.486;2023-05-25T05:39:51;102090.41;;;15.28;71.43
9695;BME280;4690;52.422;13.486;2023-05-25T05:42:17;102088.38;;;15.41;71.02
9695;BME280;4690;52.422;13.486;2023-05-25T05:44:43;102089.28;;;15.60;70.36
9695;BME280;4690;52.422;13.486;2023-05-25T05:47:09;102092.53;;;15.76;70.02
9695;BME280;4690;52.422;13.486;2023-05-25T05:49:35;102090.41;;;15.96;69.74
9695;BME280;4690;52.422;13.486;2023-05-25T05:52:04;102097.03;;;16.13;69.11
9695;BME280;4690;52.422;13.486;2023-05-25T05:54:30;102100.84;;;16.31;68.62
9695;BME280;4690;52.422;13.486;2023-05-25T05:56:56;102106.97;;;16.51;67.40
9695;BME280;4690;52.422;13.486;2023-05-25T05:59:22;102099.84;;;16.74;66.90
9695;BME280;4690;52.422;13.486;2023-05-25T06:01:49;102107.16;;;16.87;67.28
9695;BME280;4690;52.422;13.486;2023-05-25T06:04:14;102108.19;;;17.04;65.60
9695;BME280;4690;52.422;13.486;2023-05-25T06:06:41;102112.06;;;17.15;64.49
9695;BME280;4690;52.422;13.486;2023-05-25T06:09:07;102109.31;;;17.27;64.07
9695;BME280;4690;52.422;13.486;2023-05-25T06:11:36;102120.28;;;17.45;64.34
9695;BME280;4690;52.422;13.486;2023-05-25T06:14:02;102117.16;;;17.65;64.72
9695;BME280;4690;52.422;13.486;2023-05-25T06:16:28;102119.97;;;17.77;63.66
9695;BME280;4690;52.422;13.486;2023-05-25T06:18:54;102120.94;;;17.94;62.91
9695;BME280;4690;52.422;13.486;2023-05-25T06:21:20;102126.00;;;18.09;60.82
9695;BME280;4690;52.422;13.486;2023-05-25T06:23:46;102113.53;;;18.23;60.81
9695;BME280;4690;52.422;13.486;2023-05-25T06:26:12;102118.72;;;18.31;60.72
9695;BME280;4690;52.422;13.486;2023-05-25T06:28:38;102120.59;;;18.43;60.83
9695;BME280;4690;52.422;13.486;2023-05-25T06:31:04;102123.69;;;18.58;60.13
9695;BME280;4690;52.422;13.486;2023-05-25T06:33:30;102125.00;;;18.67;59.48
9695;BME280;4690;52.422;13.486;2023-05-25T06:35:56;102129.31;;;18.87;59.98
9695;BME280;4690;52.422;13.486;2023-05-25T06:38:25;102131.19;;;18.98;58.17
9695;BME280;4690;52.422;13.486;2023-05-25T06:40:51;102131.22;;;19.15;58.34
9695;BME280;4690;52.422;13.486;2023-05-25T06:43:17;102132.22;;;19.25;56.75
9695;BME280;4690;52.422;13.486;2023-05-25T06:45:43;102139.63;;;19.37;56.09
9695;BME280;4690;52.422;13.486;2023-05-25T06:48:09;102133.84;;;19.55;57.89
9695;BME280;4690;52.422;13.486;2023-05-25T06:50:35;102137.03;;;19.64;55.82
9695;BME280;4690;52.422;13.486;2023-05-25T06:53:01;102133.84;;;19.72;53.40
9695;BME280;4690;52.422;13.486;2023-05-25T06:55:27;102131.25;;;19.82;53.70
9695;BME280;4690;52.422;13.486;2023-05-25T06:57:53;102126.13;;;19.96;54.37
9695;BME280;4690;52.422;13.486;2023-05-25T07:00:19;102134.91;;;20.05;51.62
9695;BME280;4690;52.422;13.486;2023-05-25T07:02:46;102130.38;;;20.21;52.43
9695;BME280;4690;52.422;13.486;2023-05-25T07:05:11;102136.84;;;20.26;50.98
9695;BME280;4690;52.422;13.486;2023-05-25T07:07:37;102123.41;;;20.40;51.21
9695;BME280;4690;52.422;13.486;2023-05-25T07:10:03;102130.28;;;20.54;50.01
9695;BME280;4690;52.422;13.486;2023-05-25T07:12:29;102134.63;;;20.67;51.52
9695;BME280;4690;52.422;13.486;2023-05-25T07:14:57;102135.63;;;20.83;50.84
9695;BME280;4690;52.422;13.486;2023-05-25T07:17:22;102135.09;;;20.86;49.22
9695;BME280;4690;52.422;13.486;2023-05-25T07:19:48;102136.34;;;20.95;48.39
9695;BME280;4690;52.422;13.486;2023-05-25T07:22:15;102141.09;;;21.00;48.39
9695;BME280;4690;52.422;13.486;2023-05-25T07:24:46;102139.00;;;21.12;47.54
9695;BME280;4690;52.422;13.486;2023-05-25T07:27:13;102130.41;;;21.19;47.00
9695;BME280;4690;52.422;13.486;2023-05-25T07:29:39;102134.94;;;21.25;48.79
9695;BME280;4690;52.422;13.486;2023-05-25T07:32:05;102131.91;;;21.26;47.36
9695;BME280;4690;52.422;13.486;2023-05-25T07:34:33;102132.19;;;21.30;48.19
9695;BME280;4690;52.422;13.486;2023-05-25T07:36:59;102131.22;;;21.41;48.84
9695;BME280;4690;52.422;13.486;2023-05-25T07:39:25;102135.28;;;21.61;48.32
9695;BME280;4690;52.422;13.486;2023-05-25T07:41:51;102139.88;;;21.77;45.39
9695;BME280;4690;52.422;13.486;2023-05-25T07:44:17;102142.69;;;21.82;43.38
9695;BME280;4690;52.422;13.486;2023-05-25T07:46:43;102146.53;;;21.71;43.40
9695;BME280;4690;52.422;13.486;2023-05-25T07:49:09;102140.13;;;21.76;42.79
9695;BME280;4690;52.422;13.486;2023-05-25T07:51:44;102143.56;;;21.88;45.26
9695;BME280;4690;52.422;13.486;2023-05-25T07:54:10;102137.47;;;21.96;44.14
9695;BME280;4690;52.422;13.486;2023-05-25T07:56:37;102143.00;;;21.86;43.75
9695;BME280;4690;52.422;13.486;2023-05-25T07:59:03;102147.91;;;21.68;43.65
9695;BME280;4690;52.422;13.486;2023-05-25T08:01:29;102139.13;;;21.55;44.76
9695;BME280;4690;52.422;13.486;2023-05-25T08:03:55;102153.63;;;21.57;45.20
9695;BME280;4690;52.422;13.486;2023-05-25T08:06:22;102149.31;;;21.76;42.35
9695;BME280;4690;52.422;13.486;2023-05-25T08:08:48;102157.56;;;21.98;42.40
9695;BME280;4690;52.422;13.486;2023-05-25T08:11:16;102148.38;;;21.98;40.81
9695;BME280;4690;52.422;13.486;2023-05-25T08:13:42;102137.84;;;22.15;42.46
9695;BME280;4690;52.422;13.486;2023-05-25T08:16:08;102154.75;;;22.30;42.25
9695;BME280;4690;52.422;13.486;2023-05-25T08:18:34;102149.38;;;22.24;41.23
9695;BME280;4690;52.422;13.486;2023-05-25T08:21:00;102156.28;;;22.11;41.82
9695;BME280;4690;52.422;13.486;2023-05-25T08:23:26;102151.94;;;21.88;41.31
9695;BME280;4690;52.422;13.486;2023-05-25T08:25:52;102152.94;;;21.71;42.15
9695;BME280;4690;52.422;13.486;2023-05-25T08:28:20;102152.59;;;21.36;41.67
9695;BME280;4690;52.422;13.486;2023-05-25T08:30:46;102151.59;;;21.20;42.17
9695;BME280;4690;52.422;13.486;2023-05-25T08:33:12;102151.66;;;21.25;44.18
9695;BME280;4690;52.422;13.486;2023-05-25T08:35:38;102155.34;;;21.31;43.11
9695;BME280;4690;52.422;13.486;2023-05-25T08:38:07;102157.00;;;21.26;42.12
9695;BME280;4690;52.422;13.486;2023-05-25T08:40:33;102162.50;;;21.21;42.74
9695;BME280;4690;52.422;13.486;2023-05-25T08:42:59;102160.25;;;21.18;43.49
9695;BME280;4690;52.422;13.486;2023-05-25T08:45:25;102154.09;;;21.16;44.16
9695;BME280;4690;52.422;13.486;2023-05-25T08:47:57;102155.81;;;21.22;44.06
9695;BME280;4690;52.422;13.486;2023-05-25T08:50:26;102153.72;;;21.35;43.64
9695;BME280;4690;52.422;13.486;2023-05-25T08:52:54;102146.69;;;21.54;43.65
9695;BME280;4690;52.422;13.486;2023-05-25T08:55:25;102155.25;;;21.80;43.01
9695;BME280;4690;52.422;13.486;2023-05-25T08:58:18;102147.94;;;22.16;42.59
9695;BME280;4690;52.422;13.486;2023-05-25T09:00:59;102151.16;;;22.45;40.28
9695;BME280;4690;52.422;13.486;2023-05-25T09:03:28;102159.06;;;22.69;40.54
9695;BME280;4690;52.422;13.486;2023-05-25T09:05:58;102153.75;;;22.62;38.83
9695;BME280;4690;52.422;13.486;2023-05-25T09:08:24;102156.50;;;22.52;39.22
9695;BME280;4690;52.422;13.486;2023-05-25T09:10:52;102155.66;;;22.51;41.70
9695;BME280;4690;52.422;13.486;2023-05-25T09:13:19;102163.47;;;22.49;39.64
9695;BME280;4690;52.422;13.486;2023-05-25T09:15:45;102158.69;;;22.40;40.41
9695;BME280;4690;52.422;13.486;2023-05-25T09:18:11;102171.22;;;22.32;41.54
9695;BME280;4690;52.422;13.486;2023-05-25T09:20:37;102165.31;;;22.23;41.65
9695;BME280;4690;52.422;13.486;2023-05-25T09:23:04;102179.16;;;22.13;41.81
9695;BME280;4690;52.422;13.486;2023-05-25T09:25:31;102171.84;;;22.02;42.44
9695;BME280;4690;52.422;13.486;2023-05-25T09:27:58;102172.88;;;21.90;41.96
9695;BME280;4690;52.422;13.486;2023-05-25T09:30:25;102168.69;;;21.88;42.71
9695;BME280;4690;52.422;13.486;2023-05-25T09:33:12;102166.19;;;21.91;40.00
9695;BME280;4690;52.422;13.486;2023-05-25T09:35:39;102161.84;;;22.11;40.64
9695;BME280;4690;52.422;13.486;2023-05-25T09:38:06;102166.50;;;22.37;40.89
9695;BME280;4690;52.422;13.486;2023-05-25T09:40:36;102166.06;;;22.61;41.10
9695;BME280;4690;52.422;13.486;2023-05-25T09:43:02;102161.09;;;22.83;38.72
9695;BME280;4690;52.422;13.486;2023-05-25T09:45:29;102173.38;;;22.82;39.03
9695;BME280;4690;52.422;13.486;2023-05-25T09:47:56;102170.88;;;22.86;38.74
9695;BME280;4690;52.422;13.486;2023-05-25T09:50:22;102175.34;;;22.82;39.30
9695;BME280;4690;52.422;13.486;2023-05-25T09:52:51;102170.00;;;22.80;40.53
9695;BME280;4690;52.422;13.486;2023-05-25T09:55:17;102166.13;;;22.92;39.56
9695;BME280;4690;52.422;13.486;2023-05-25T09:57:42;102170.69;;;23.08;39.42
9695;BME280;4690;52.422;13.486;2023-05-25T10:00:10;102170.13;;;23.11;37.90
9695;BME280;4690;52.422;13.486;2023-05-25T10:02:36;102171.00;;;23.12;38.30
9695;BME280;4690;52.422;13.486;2023-05-25T10:05:02;102172.91;;;22.96;38.04
9695;BME280;4690;52.422;13.486;2023-05-25T10:07:30;102176.19;;;22.88;39.44
9695;BME280;4690;52.422;13.486;2023-05-25T10:10:04;102167.88;;;22.98;38.70
9695;BME280;4690;52.422;13.486;2023-05-25T10:12:32;102165.97;;;23.19;39.81
9695;BME280;4690;52.422;13.486;2023-05-25T10:15:02;102172.13;;;23.41;38.44
9695;BME280;4690;52.422;13.486;2023-05-25T10:17:31;102162.91;;;23.61;36.89
9695;BME280;4690;52.422;13.486;2023-05-25T10:20:03;102167.41;;;23.88;36.97
9695;BME280;4690;52.422;13.486;2023-05-25T10:22:47;102171.84;;;24.04;36.94
9695;BME280;4690;52.422;13.486;2023-05-25T10:25:26;102172.66;;;24.10;36.14
9695;BME280;4690;52.422;13.486;2023-05-25T10:28:06;102173.22;;;24.12;37.50
9695;BME280;4690;52.422;13.486;2023-05-25T10:30:33;102170.16;;;24.03;39.46
9695;BME280;4690;52.422;13.486;2023-05-25T10:33:02;102173.84;;;23.93;38.46
9695;BME280;4690;52.422;13.486;2023-05-25T10:35:28;102175.50;;;23.79;38.62
9695;BME280;4690;52.422;13.486;2023-05-25T10:37:57;102177.19;;;23.60;38.60
9695;BME280;4690;52.422;13.486;2023-05-25T10:40:23;102181.91;;;23.39;38.63
9695;BME280;4690;52.422;13.486;2023-05-25T10:42:52;102189.47;;;23.23;39.55
9695;BME280;4690;52.422;13.486;2023-05-25T10:45:19;102178.25;;;23.08;40.45
9695;BME280;4690;52.422;13.486;2023-05-25T10:47:45;102172.63;;;22.97;40.73
9695;BME280;4690;52.422;13.486;2023-05-25T10:50:19;102172.38;;;23.09;41.69
9695;BME280;4690;52.422;13.486;2023-05-25T10:53:02;102166.22;;;23.12;38.79
9695;BME280;4690;52.422;13.486;2023-05-25T10:55:47;102161.50;;;23.33;41.51
9695;BME280;4690;52.422;13.486;2023-05-25T10:58:16;102160.13;;;23.46;38.49
9695;BME280;4690;52.422;13.486;2023-05-25T11:00:56;102157.88;;;23.68;38.79
9695;BME280;4690;52.422;13.486;2023-05-25T11:06:12;102171.00;;;23.99;38.05
9695;BME280;4690;52.422;13.486;2023-05-25T11:11:21;102169.91;;;23.69;37.52
9695;BME280;4690;52.422;13.486;2023-05-25T11:17:11;102158.72;;;23.48;40.08
9695;BME280;4690;52.422;13.486;2023-05-25T11:19:50;102162.91;;;23.61;39.79
9695;BME280;4690;52.422;13.486;2023-05-25T11:22:32;102160.09;;;23.87;39.45
9695;BME280;4690;52.422;13.486;2023-05-25T11:25:34;102168.50;;;23.92;39.44
9695;BME280;4690;52.422;13.486;2023-05-25T11:28:06;102170.47;;;23.86;37.58
9695;BME280;4690;52.422;13.486;2023-05-25T11:30:32;102167.69;;;23.76;38.68
9695;BME280;4690;52.422;13.486;2023-05-25T11:33:03;102160.94;;;23.62;38.99
9695;BME280;4690;52.422;13.486;2023-05-25T11:35:30;102162.09;;;23.45;38.02
9695;BME280;4690;52.422;13.486;2023-05-25T11:38:05;102168.47;;;23.25;37.73
9695;BME280;4690;52.422;13.486;2023-05-25T11:40:31;102177.97;;;23.14;38.64
9695;BME280;4690;52.422;13.486;2023-05-25T11:42:58;102166.50;;;23.00;38.02
9695;BME280;4690;52.422;13.486;2023-05-25T11:45:28;102167.31;;;22.96;37.24
9695;BME280;4690;52.422;13.486;2023-05-25T11:47:54;102165.38;;;23.01;37.20
9695;BME280;4690;52.422;13.486;2023-05-25T11:50:20;102158.41;;;23.19;37.14
9695;BME280;4690;52.422;13.486;2023-05-25T11:52:46;102164.31;;;23.43;38.80
9695;BME280;4690;52.422;13.486;2023-05-25T11:55:14;102157.03;;;23.47;38.62
9695;BME280;4690;52.422;13.486;2023-05-25T11:57:40;102160.69;;;23.43;38.53
9695;BME280;4690;52.422;13.486;2023-05-25T12:00:07;102158.72;;;23.38;40.02
9695;BME280;4690;52.422;13.486;2023-05-25T12:02:40;102155.91;;;23.43;40.40
9695;BME280;4690;52.422;13.486;2023-05-25T12:05:06;102149.78;;;23.57;39.52
9695;BME280;4690;52.422;13.486;2023-05-25T12:07:34;102146.69;;;23.68;38.45
9695;BME280;4690;52.422;13.486;2023-05-25T12:10:09;102149.78;;;23.77;38.21
9695;BME280;4690;52.422;13.486;2023-05-25T12:12:47;102155.06;;;23.74;39.27
9695;BME280;4690;52.422;13.486;2023-05-25T12:15:17;102144.97;;;23.62;37.89
9695;BME280;4690;52.422;13.486;2023-05-25T12:17:45;102146.97;;;23.52;37.48
9695;BME280;4690;52.422;13.486;2023-05-25T12:20:14;102150.03;;;23.40;39.80
9695;BME280;4690;52.422;13.486;2023-05-25T12:22:42;102147.50;;;23.54;38.42
9695;BME280;4690;52.422;13.486;2023-05-25T12:25:10;102141.66;;;23.70;38.33
9695;BME280;4690;52.422;13.486;2023-05-25T12:27:37;102144.19;;;23.82;37.43
9695;BME280;4690;52.422;13.486;2023-05-25T12:30:07;102141.59;;;23.96;36.91
9695;BME280;4690;52.422;13.486;2023-05-25T12:32:34;102150.00;;;24.01;37.81
9695;BME280;4690;52.422;13.486;2023-05-25T12:35:10;102135.13;;;24.16;37.05
9695;BME280;4690;52.422;13.486;2023-05-25T12:37:35;102153.28;;;24.34;38.35
9695;BME280;4690;52.422;13.486;2023-05-25T12:40:17;102147.13;;;24.27;36.27
9695;BME280;4690;52.422;13.486;2023-05-25T12:42:42;102148.28;;;24.21;36.63
9695;BME280;4690;52.422;13.486;2023-05-25T12:45:10;102139.94;;;24.05;36.68
9695;BME280;4690;52.422;13.486;2023-05-25T12:47:36;102145.25;;;23.97;36.59
9695;BME280;4690;52.422;13.486;2023-05-25T12:50:13;102146.66;;;23.99;36.84
9695;BME280;4690;52.422;13.486;2023-05-25T12:52:42;102135.72;;;23.98;37.13
9695;BME280;4690;52.422;13.486;2023-05-25T12:55:32;102148.06;;;23.86;37.45
9695;BME280;4690;52.422;13.486;2023-05-25T12:58:05;102141.06;;;23.74;38.00
9695;BME280;4690;52.422;13.486;2023-05-25T13:00:35;102140.22;;;23.68;38.44
9695;BME280;4690;52.422;13.486;2023-05-25T13:03:03;102138.28;;;23.63;39.08
9695;BME280;4690;52.422;13.486;2023-05-25T13:05:33;102139.66;;;23.50;38.94
9695;BME280;4690;52.422;13.486;2023-05-25T13:08:01;102130.72;;;23.38;39.27
9695;BME280;4690;52.422;13.486;2023-05-25T13:10:29;102134.91;;;23.36;40.34
9695;BME280;4690;52.422;13.486;2023-05-25T13:12:57;102138.00;;;23.29;40.38
9695;BME280;4690;52.422;13.486;2023-05-25T13:15:25;102133.81;;;23.32;40.01
9695;BME280;4690;52.422;13.486;2023-05-25T13:17:53;102138.28;;;23.53;40.40
9695;BME280;4690;52.422;13.486;2023-05-25T13:20:21;102134.38;;;23.80;40.52